createdAt,value
2018-02-05T00:01:06.801Z,1.50
2018-02-05T00:03:35.166Z,1.50
2018-02-05T00:06:03.416Z,1.50
2018-02-05T00:08:31.716Z,1.50
2018-02-05T00:11:00.210Z,1.50
2018-02-05T00:13:28.807Z,1.60
2018-02-05T00:15:57.160Z,1.60
2018-02-05T00:18:25.413Z,1.70
2018-02-05T00:20:53.765Z,1.60
2018-02-05T00:23:22.803Z,1.60
2018-02-05T00:25:51.088Z,1.50
2018-02-05T00:28:35.810Z,1.50
2018-02-05T00:31:04.453Z,1.50
2018-02-05T00:33:33.013Z,1.40
2018-02-05T00:36:01.369Z,1.40
2018-02-05T00:38:29.990Z,1.40
2018-02-05T00:40:58.689Z,1.40
2018-02-05T00:43:26.952Z,1.40
2018-02-05T00:45:55.513Z,1.40
2018-02-05T00:48:23.813Z,1.50
2018-02-05T00:50:52.190Z,1.50
2018-02-05T00:53:20.493Z,1.50
2018-02-05T00:55:48.802Z,1.50
2018-02-05T00:58:17.937Z,1.60
2018-02-05T01:00:46.192Z,1.60
2018-02-05T01:03:16.672Z,1.60
2018-02-05T01:05:45.209Z,1.60
2018-02-05T01:08:16.354Z,1.70
2018-02-05T01:10:44.947Z,1.70
2018-02-05T01:13:15.101Z,1.70
2018-02-05T01:15:43.408Z,1.80
2018-02-05T01:18:12.273Z,1.80
2018-02-05T01:20:40.808Z,1.80
2018-02-05T01:23:09.977Z,1.80
2018-02-05T01:25:38.265Z,1.80
2018-02-05T01:28:07.349Z,2.00
2018-02-05T01:30:36.808Z,2.00
2018-02-05T01:33:05.844Z,2.00
2018-02-05T01:35:34.103Z,2.00
2018-02-05T01:38:02.671Z,2.10
2018-02-05T01:40:43.914Z,2.10
2018-02-05T01:43:12.490Z,2.00
2018-02-05T01:45:41.528Z,1.90
2018-02-05T01:48:10.036Z,1.90
2018-02-05T01:50:38.626Z,1.90
2018-02-05T01:53:07.008Z,1.90
2018-02-05T01:55:35.401Z,1.90
2018-02-05T01:58:04.782Z,1.90
2018-02-05T02:00:33.028Z,1.90
2018-02-05T02:03:01.305Z,1.90
2018-02-05T02:05:29.592Z,1.90
2018-02-05T02:07:57.864Z,1.90
2018-02-05T02:10:26.398Z,1.90
2018-02-05T02:12:55.432Z,1.90
2018-02-05T02:15:23.689Z,1.90
2018-02-05T02:17:52.242Z,1.90
2018-02-05T02:20:22.669Z,1.90
2018-02-05T02:22:50.929Z,1.90
2018-02-05T02:25:19.504Z,1.90
2018-02-05T02:27:47.811Z,1.90
2018-02-05T02:30:16.848Z,1.80
2018-02-05T02:32:45.497Z,1.70
2018-02-05T02:35:13.750Z,1.70
2018-02-05T02:37:42.021Z,1.70
2018-02-05T02:40:10.328Z,1.80
2018-02-05T02:42:39.357Z,1.80
2018-02-05T02:45:08.138Z,1.80
2018-02-05T02:47:37.164Z,1.80
2018-02-05T02:50:05.448Z,1.80
2018-02-05T02:52:33.765Z,1.80
2018-02-05T02:55:02.037Z,1.90
2018-02-05T02:57:31.538Z,1.90
2018-02-05T02:59:59.862Z,1.90
2018-02-05T03:02:28.137Z,2.00
2018-02-05T03:04:56.427Z,2.00
2018-02-05T03:07:24.691Z,2.40
2018-02-05T03:09:53.571Z,2.10
2018-02-05T03:12:21.834Z,2.00
2018-02-05T03:14:51.084Z,1.90
2018-02-05T03:17:19.845Z,2.00
2018-02-05T03:19:48.201Z,2.00
2018-02-05T03:22:17.232Z,2.10
2018-02-05T03:24:46.048Z,2.10
2018-02-05T03:27:14.323Z,2.10
2018-02-05T03:29:43.002Z,2.20
2018-02-05T03:32:11.319Z,2.20
2018-02-05T03:34:40.525Z,2.20
2018-02-05T03:37:09.902Z,2.20
2018-02-05T03:39:38.173Z,2.20
2018-02-05T03:42:08.185Z,2.20
2018-02-05T03:44:36.774Z,2.20
2018-02-05T03:47:05.084Z,2.20
2018-02-05T03:49:33.539Z,2.20
2018-02-05T03:52:01.841Z,2.30
2018-02-05T03:54:30.884Z,2.30
2018-02-05T03:56:59.576Z,2.20
2018-02-05T03:59:27.918Z,2.20
2018-02-05T04:01:56.936Z,2.20
2018-02-05T04:04:26.023Z,2.20
2018-02-05T04:07:01.064Z,2.20
2018-02-05T04:09:29.829Z,2.20
2018-02-05T04:11:58.868Z,2.20
2018-02-05T04:14:27.143Z,2.10
2018-02-05T04:16:55.746Z,2.20
2018-02-05T04:19:24.053Z,2.20
2018-02-05T04:21:52.346Z,2.20
2018-02-05T04:24:20.923Z,2.20
2018-02-05T04:26:49.167Z,2.10
2018-02-05T04:29:17.453Z,2.10
2018-02-05T04:31:46.017Z,2.10
2018-02-05T04:34:14.279Z,2.00
2018-02-05T04:36:42.580Z,1.90
2018-02-05T04:39:10.888Z,1.80
2018-02-05T04:41:39.156Z,1.70
2018-02-05T04:44:09.457Z,1.60
2018-02-05T04:46:37.795Z,1.50
2018-02-05T04:49:06.052Z,1.50
2018-02-05T04:51:34.333Z,1.40
2018-02-05T04:54:04.001Z,1.40
2018-02-05T04:56:32.591Z,1.40
2018-02-05T04:59:00.873Z,1.50
2018-02-05T05:01:29.136Z,1.50
2018-02-05T05:03:57.441Z,1.60
2018-02-05T05:06:25.749Z,1.60
2018-02-05T05:08:54.917Z,1.60
2018-02-05T05:11:23.181Z,1.70
2018-02-05T05:13:51.479Z,1.70
2018-02-05T05:16:19.757Z,1.80
2018-02-05T05:18:48.788Z,1.90
2018-02-05T05:21:17.423Z,1.80
2018-02-05T05:23:45.762Z,1.90
2018-02-05T05:26:14.021Z,1.90
2018-02-05T05:28:43.607Z,1.90
2018-02-05T05:31:11.871Z,1.90
2018-02-05T05:33:40.440Z,2.00
2018-02-05T05:36:08.706Z,2.00
2018-02-05T05:38:36.977Z,2.00
2018-02-05T05:41:05.374Z,2.10
2018-02-05T05:43:33.684Z,2.10
2018-02-05T05:46:02.358Z,2.00
2018-02-05T05:48:30.698Z,2.00
2018-02-05T05:50:58.942Z,2.00
2018-02-05T05:53:27.249Z,2.10
2018-02-05T05:55:55.505Z,2.10
2018-02-05T05:58:24.056Z,2.10
2018-02-05T06:00:52.338Z,2.10
2018-02-05T06:03:21.424Z,2.10
2018-02-05T06:05:49.729Z,2.10
2018-02-05T06:08:18.756Z,2.10
2018-02-05T06:10:48.088Z,2.10
2018-02-05T06:13:16.348Z,2.10
2018-02-05T06:15:44.623Z,2.10
2018-02-05T06:18:12.977Z,2.20
2018-02-05T06:20:41.271Z,2.20
2018-02-05T06:23:10.097Z,2.20
2018-02-05T06:25:38.348Z,2.20
2018-02-05T06:28:06.624Z,2.20
2018-02-05T06:30:35.693Z,2.20
2018-02-05T06:33:03.998Z,2.00
2018-02-05T06:35:32.633Z,2.20
2018-02-05T06:38:01.746Z,2.20
2018-02-05T06:40:30.852Z,2.20
2018-02-05T06:42:59.176Z,2.20
2018-02-05T06:45:27.468Z,2.30
2018-02-05T06:47:56.154Z,2.30
2018-02-05T06:50:36.466Z,2.30
2018-02-05T06:56:13.244Z,2.30
2018-02-05T06:58:41.541Z,2.30
2018-02-05T07:01:10.133Z,2.30
2018-02-05T07:03:38.429Z,2.20
2018-02-05T07:06:06.696Z,2.20
2018-02-05T07:08:35.032Z,2.20
2018-02-05T07:11:04.072Z,2.20
2018-02-05T07:13:32.372Z,2.20
2018-02-05T07:16:00.640Z,2.20
2018-02-05T07:18:28.932Z,2.20
2018-02-05T07:20:57.238Z,2.20
2018-02-05T07:23:25.954Z,2.30
2018-02-05T07:25:54.229Z,2.20
2018-02-05T07:28:23.326Z,2.20
2018-02-05T07:30:51.704Z,2.20
2018-02-05T07:33:19.968Z,2.10
2018-02-05T07:35:48.302Z,2.10
2018-02-05T07:38:16.570Z,2.00
2018-02-05T07:40:45.161Z,2.00
2018-02-05T07:43:13.429Z,2.00
2018-02-05T07:45:41.705Z,2.00
2018-02-05T07:48:10.148Z,1.90
2018-02-05T07:50:39.232Z,1.90
2018-02-05T07:53:08.316Z,1.90
2018-02-05T07:55:36.613Z,1.80
2018-02-05T07:58:04.940Z,1.90
2018-02-05T08:00:33.265Z,1.90
2018-02-05T08:03:01.556Z,2.00
2018-02-05T08:05:29.864Z,2.00
2018-02-05T08:07:58.193Z,2.00
2018-02-05T08:10:26.490Z,2.10
2018-02-05T08:12:57.793Z,2.10
2018-02-05T08:15:26.990Z,2.20
2018-02-05T08:17:55.268Z,2.20
2018-02-05T08:20:23.668Z,2.20
2018-02-05T08:22:51.976Z,2.20
2018-02-05T08:25:21.092Z,2.20
2018-02-05T08:27:49.372Z,2.20
2018-02-05T08:30:17.690Z,2.30
2018-02-05T08:32:46.057Z,2.30
2018-02-05T08:35:14.305Z,2.40
2018-02-05T08:37:44.182Z,2.50
2018-02-05T08:40:12.460Z,2.40
2018-02-05T08:42:41.581Z,2.40
2018-02-05T08:45:10.649Z,2.50
2018-02-05T08:47:38.981Z,2.40
2018-02-05T08:50:07.269Z,2.40
2018-02-05T08:52:35.705Z,2.40
2018-02-05T08:55:04.023Z,2.40
2018-02-05T08:57:33.689Z,2.40
2018-02-05T09:00:01.981Z,2.40
2018-02-05T09:02:30.252Z,2.50
2018-02-05T09:04:58.569Z,2.60
2018-02-05T09:07:26.832Z,2.80
2018-02-05T09:09:55.103Z,2.90
2018-02-05T09:12:23.409Z,3.00
2018-02-05T09:14:51.708Z,3.10
2018-02-05T09:17:20.033Z,3.10
2018-02-05T09:19:48.387Z,3.20
2018-02-05T09:22:16.706Z,3.20
2018-02-05T09:24:44.976Z,3.20
2018-02-05T09:27:13.293Z,3.20
2018-02-05T09:29:41.569Z,3.20
2018-02-05T09:32:09.846Z,3.30
2018-02-05T09:34:38.143Z,3.20
2018-02-05T09:37:07.183Z,3.20
2018-02-05T09:39:35.563Z,3.20
2018-02-05T09:42:03.814Z,3.20
2018-02-05T09:44:32.137Z,3.20
2018-02-05T09:47:00.470Z,3.10
2018-02-05T09:49:29.633Z,3.00
2018-02-05T09:51:57.935Z,3.00
2018-02-05T09:54:26.989Z,3.00
2018-02-05T09:56:55.276Z,3.00
2018-02-05T09:59:23.584Z,3.00
2018-02-05T10:01:51.943Z,3.00
2018-02-05T10:04:20.260Z,3.00
2018-02-05T10:06:49.334Z,3.10
2018-02-05T10:09:18.456Z,3.20
2018-02-05T10:11:47.544Z,3.30
2018-02-05T10:14:16.674Z,3.30
2018-02-05T10:16:44.953Z,3.30
2018-02-05T10:19:13.291Z,3.40
2018-02-05T10:21:41.581Z,3.50
2018-02-05T10:24:10.690Z,3.80
2018-02-05T10:26:39.035Z,3.80
2018-02-05T10:29:07.385Z,4.00
2018-02-05T10:31:35.790Z,4.20
2018-02-05T10:34:04.075Z,4.40
2018-02-05T10:36:32.456Z,4.60
2018-02-05T10:39:00.753Z,4.80
2018-02-05T10:41:30.100Z,5.20
2018-02-05T10:43:58.486Z,5.10
2018-02-05T10:46:26.826Z,5.30
2018-02-05T10:48:55.959Z,5.70
2018-02-05T10:51:24.260Z,5.70
2018-02-05T10:53:52.593Z,5.90
2018-02-05T10:56:20.892Z,6.10
2018-02-05T10:58:49.213Z,6.40
2018-02-05T11:01:18.326Z,6.80
2018-02-05T11:03:46.709Z,6.80
2018-02-05T11:06:15.000Z,7.00
2018-02-05T11:08:43.292Z,7.10
2018-02-05T11:11:12.414Z,6.90
2018-02-05T11:13:40.916Z,6.90
2018-02-05T11:16:09.243Z,6.80
2018-02-05T11:18:37.514Z,6.70
2018-02-05T11:21:05.881Z,6.70
2018-02-05T11:23:35.015Z,6.60
2018-02-05T11:26:03.368Z,6.60
2018-02-05T11:28:31.678Z,6.60
2018-02-05T11:30:59.953Z,6.50
2018-02-05T11:33:28.317Z,6.40
2018-02-05T11:35:56.619Z,6.20
2018-02-05T11:38:24.916Z,5.90
2018-02-05T11:40:53.233Z,5.70
2018-02-05T11:43:21.546Z,5.40
2018-02-05T11:45:49.833Z,5.20
2018-02-05T11:48:18.171Z,5.10
2018-02-05T11:50:46.427Z,5.00
2018-02-05T11:53:15.506Z,5.20
2018-02-05T11:55:43.811Z,5.10
2018-02-05T11:58:12.074Z,5.60
2018-02-05T12:00:40.446Z,6.20
2018-02-05T12:03:08.740Z,7.00
2018-02-05T12:05:37.856Z,8.80
2018-02-05T12:08:06.130Z,8.80
2018-02-05T12:10:34.429Z,9.50
2018-02-05T12:13:02.809Z,10.00
2018-02-05T12:15:31.141Z,10.50
2018-02-05T12:18:00.244Z,11.20
2018-02-05T12:20:29.282Z,11.00
2018-02-05T12:22:57.628Z,11.00
2018-02-05T12:25:25.920Z,11.10
2018-02-05T12:27:54.233Z,10.70
2018-02-05T12:30:22.541Z,10.10
2018-02-05T12:32:51.576Z,9.50
2018-02-05T12:35:19.874Z,9.50
2018-02-05T12:37:48.195Z,9.20
2018-02-05T12:40:16.531Z,8.70
2018-02-05T12:42:44.841Z,8.20
2018-02-05T12:45:13.127Z,7.60
2018-02-05T12:47:42.213Z,7.00
2018-02-05T12:50:10.502Z,7.00
2018-02-05T12:52:38.783Z,6.70
2018-02-05T12:55:07.045Z,6.50
2018-02-05T12:57:35.355Z,6.40
2018-02-05T13:00:15.350Z,6.10
2018-02-05T13:02:46.239Z,6.10
2018-02-05T13:05:16.106Z,6.00
2018-02-05T13:07:44.426Z,6.00
2018-02-05T13:10:13.477Z,6.30
2018-02-05T13:12:41.844Z,6.30
2018-02-05T13:15:10.147Z,6.40
2018-02-05T13:17:38.402Z,7.40
2018-02-05T13:20:06.687Z,9.00
2018-02-05T13:22:35.008Z,10.80
2018-02-05T13:25:03.317Z,12.40
2018-02-05T13:27:31.725Z,13.10
2018-02-05T13:30:00.027Z,13.10
2018-02-05T13:32:28.308Z,12.50
2018-02-05T13:34:56.603Z,11.70
2018-02-05T13:37:25.682Z,10.20
2018-02-05T13:39:54.024Z,10.20
2018-02-05T13:42:22.317Z,9.50
2018-02-05T13:44:50.647Z,8.80
2018-02-05T13:47:19.721Z,7.60
2018-02-05T13:49:48.021Z,7.60
2018-02-05T13:52:16.408Z,7.20
2018-02-05T13:54:45.494Z,6.50
2018-02-05T13:57:13.845Z,6.50
2018-02-05T13:59:42.096Z,6.20
2018-02-05T14:02:10.424Z,5.90
2018-02-05T14:04:39.482Z,5.60
2018-02-05T14:07:08.689Z,5.50
2018-02-05T14:09:37.008Z,5.40
2018-02-05T14:12:05.333Z,5.30
2018-02-05T14:14:33.734Z,5.30
2018-02-05T14:17:02.810Z,5.20
2018-02-05T14:19:31.104Z,5.20
2018-02-05T14:21:59.409Z,5.10
2018-02-05T14:24:28.479Z,4.90
2018-02-05T14:26:56.773Z,4.90
2018-02-05T14:29:25.817Z,4.80
2018-02-05T14:31:54.157Z,4.80
2018-02-05T14:34:23.229Z,4.90
2018-02-05T14:36:51.806Z,4.90
2018-02-05T14:39:20.139Z,5.00
2018-02-05T14:41:48.443Z,5.00
2018-02-05T14:44:16.796Z,5.10
2018-02-05T14:46:45.082Z,5.10
2018-02-05T14:49:13.410Z,5.10
2018-02-05T14:51:41.704Z,5.00
2018-02-05T14:54:10.898Z,5.00
2018-02-05T14:56:39.218Z,4.90
2018-02-05T14:59:08.501Z,4.90
2018-02-05T15:01:36.788Z,4.80
2018-02-05T15:04:05.147Z,4.60
2018-02-05T15:06:33.445Z,4.50
2018-02-05T15:09:01.717Z,4.40
2018-02-05T15:11:30.031Z,4.20
2018-02-05T15:13:58.319Z,4.10
2018-02-05T15:16:26.662Z,3.90
2018-02-05T15:18:55.055Z,3.80
2018-02-05T15:21:23.613Z,3.60
2018-02-05T15:23:51.957Z,3.50
2018-02-05T15:26:20.216Z,3.50
2018-02-05T15:28:48.540Z,3.40
2018-02-05T15:31:17.632Z,3.30
2018-02-05T15:33:46.737Z,3.20
2018-02-05T15:36:15.015Z,3.20
2018-02-05T15:38:43.353Z,3.20
2018-02-05T15:41:11.604Z,3.10
2018-02-05T15:43:39.881Z,3.00
2018-02-05T15:46:08.294Z,3.00
2018-02-05T15:48:36.591Z,2.90
2018-02-05T15:51:05.651Z,2.80
2018-02-05T15:53:33.957Z,2.80
2018-02-05T15:56:02.296Z,2.80
2018-02-05T15:58:30.561Z,2.70
2018-02-05T16:00:58.847Z,2.70
2018-02-05T16:03:27.133Z,2.60
2018-02-05T16:05:55.442Z,2.60
2018-02-05T16:08:23.734Z,2.50
2018-02-05T16:10:52.010Z,2.40
2018-02-05T16:13:21.224Z,2.40
2018-02-05T16:15:49.481Z,2.30
2018-02-05T16:18:18.601Z,2.40
2018-02-05T16:20:46.920Z,2.40
2018-02-05T16:23:15.269Z,2.40
2018-02-05T16:25:44.503Z,2.50
2018-02-05T16:28:12.842Z,2.50
2018-02-05T16:30:41.135Z,2.60
2018-02-05T16:33:09.448Z,2.60
2018-02-05T16:35:37.742Z,2.70
2018-02-05T16:38:06.071Z,2.70
2018-02-05T16:40:34.371Z,2.70
2018-02-05T16:43:02.745Z,2.70
2018-02-05T16:45:31.030Z,2.70
2018-02-05T16:47:59.354Z,2.70
2018-02-05T16:50:28.393Z,2.70
2018-02-05T16:52:57.039Z,2.80
2018-02-05T16:55:26.095Z,2.80
2018-02-05T16:57:54.380Z,2.70
2018-02-05T17:00:22.710Z,2.70
2018-02-05T17:02:51.011Z,2.70
2018-02-05T17:05:19.313Z,2.80
2018-02-05T17:07:47.677Z,2.70
2018-02-05T17:10:16.018Z,2.80
2018-02-05T17:12:44.327Z,2.80
2018-02-05T17:15:13.064Z,2.80
2018-02-05T17:17:44.551Z,2.70
2018-02-05T17:20:13.108Z,2.70
2018-02-05T17:22:42.257Z,2.60
2018-02-05T17:25:10.891Z,2.50
2018-02-05T17:27:39.992Z,2.50
2018-02-05T17:30:08.273Z,2.50
2018-02-05T17:32:37.379Z,2.50
2018-02-05T17:35:06.485Z,2.50
2018-02-05T17:37:34.786Z,2.50
2018-02-05T17:40:03.054Z,2.40
2018-02-05T17:42:31.676Z,2.40
2018-02-05T17:45:00.012Z,2.40
2018-02-05T17:47:28.309Z,2.40
2018-02-05T17:49:56.671Z,2.30
2018-02-05T17:52:25.018Z,2.30
2018-02-05T17:54:53.323Z,2.30
2018-02-05T17:57:21.667Z,2.30
2018-02-05T17:59:50.241Z,2.30
2018-02-05T18:02:18.519Z,2.30
2018-02-05T18:04:46.845Z,2.30
2018-02-05T18:07:15.160Z,2.20
2018-02-05T18:09:43.498Z,2.20
2018-02-05T18:12:11.888Z,2.10
2018-02-05T18:14:40.170Z,2.10
2018-02-05T18:17:08.491Z,2.00
2018-02-05T18:19:36.805Z,2.00
2018-02-05T18:22:05.432Z,1.90
2018-02-05T18:24:33.731Z,1.90
2018-02-05T18:27:02.050Z,1.80
2018-02-05T18:29:30.359Z,1.70
2018-02-05T18:31:58.632Z,1.60
2018-02-05T18:34:28.536Z,1.50
2018-02-05T18:36:56.874Z,1.50
2018-02-05T18:39:25.962Z,1.40
2018-02-05T18:41:54.225Z,1.30
2018-02-05T18:44:22.514Z,1.30
2018-02-05T18:46:50.845Z,1.20
2018-02-05T18:49:19.450Z,1.10
2018-02-05T18:51:47.745Z,1.00
2018-02-05T18:54:16.791Z,0.90
2018-02-05T18:56:45.107Z,0.70
2018-02-05T18:59:15.121Z,0.60
2018-02-05T19:01:43.428Z,0.60
2018-02-05T19:04:13.270Z,0.60
2018-02-05T19:06:42.339Z,0.50
2018-02-05T19:09:11.963Z,0.50
2018-02-05T19:11:41.336Z,0.30
2018-02-05T19:14:09.770Z,0.30
2018-02-05T19:16:38.812Z,0.20
2018-02-05T19:19:07.411Z,0.20
2018-02-05T19:21:36.401Z,0.20
2018-02-05T19:24:04.671Z,0.10
2018-02-05T19:26:33.002Z,0.00
2018-02-05T19:29:01.376Z,0.00
2018-02-05T19:31:30.830Z,-0.10
2018-02-05T19:33:59.170Z,-0.20
2018-02-05T19:36:27.503Z,-0.20
2018-02-05T19:38:55.795Z,-0.20
2018-02-05T19:41:24.143Z,-0.30
2018-02-05T19:43:52.569Z,-0.40
2018-02-05T19:46:21.643Z,-0.40
2018-02-05T19:48:50.137Z,-0.50
2018-02-05T19:51:18.405Z,-0.50
2018-02-05T19:53:46.684Z,-0.50
2018-02-05T19:56:15.003Z,-0.50
2018-02-05T19:58:43.278Z,-0.50
2018-02-05T20:01:11.592Z,-0.60
2018-02-05T20:03:39.929Z,-0.60
2018-02-05T20:06:08.291Z,-0.60
2018-02-05T20:08:37.330Z,-0.60
2018-02-05T20:11:06.368Z,-0.60
2018-02-05T20:13:35.294Z,-0.60
2018-02-05T20:16:04.318Z,-0.60
2018-02-05T20:18:32.639Z,-0.60
2018-02-05T20:21:01.779Z,-0.60
2018-02-05T20:23:30.115Z,-0.70
2018-02-05T20:25:59.106Z,-0.60
2018-02-05T20:28:27.516Z,-0.60
2018-02-05T20:30:56.573Z,-0.70
2018-02-05T20:33:26.047Z,-0.60
2018-02-05T20:35:54.805Z,-0.70
2018-02-05T20:38:23.296Z,-0.60
2018-02-05T20:40:51.629Z,-0.60
2018-02-05T20:43:19.923Z,-0.60
2018-02-05T20:45:48.237Z,-0.60
2018-02-05T20:48:16.569Z,-0.60
2018-02-05T20:50:45.555Z,-0.70
2018-02-05T20:53:14.650Z,-0.70
2018-02-05T20:55:42.994Z,-0.70
2018-02-05T20:58:11.481Z,-0.70
2018-02-05T21:00:39.828Z,-0.80
2018-02-05T21:03:09.030Z,-0.90
2018-02-05T21:05:38.154Z,-0.90
2018-02-05T21:08:07.233Z,-0.90
2018-02-05T21:10:35.520Z,-1.00
2018-02-05T21:13:04.127Z,-1.00
2018-02-05T21:15:32.427Z,-1.10
2018-02-05T21:18:00.883Z,-1.10
2018-02-05T21:20:29.242Z,-1.10
2018-02-05T21:22:57.531Z,-1.20
2018-02-05T21:25:25.809Z,-1.20
2018-02-05T21:27:54.099Z,-1.30
2018-02-05T21:30:23.124Z,-1.60
2018-02-05T21:32:51.444Z,-1.40
2018-02-05T21:35:20.042Z,-1.40
2018-02-05T21:37:48.430Z,-1.50
2018-02-05T21:40:16.788Z,-1.50
2018-02-05T21:42:45.848Z,-1.60
2018-02-05T21:45:14.147Z,-1.60
2018-02-05T21:47:43.258Z,-1.60
2018-02-05T21:50:11.549Z,-1.60
2018-02-05T21:52:39.905Z,-1.60
2018-02-05T21:55:08.209Z,-1.60
2018-02-05T21:57:38.821Z,-1.60
2018-02-05T22:00:07.122Z,-1.70
2018-02-05T22:02:35.970Z,-1.70
2018-02-05T22:05:05.040Z,-1.70
2018-02-05T22:07:33.364Z,-1.80
2018-02-05T22:10:02.423Z,-1.70
2018-02-05T22:12:30.711Z,-1.80
2018-02-05T22:14:59.287Z,-1.70
2018-02-05T22:17:27.582Z,-1.70
2018-02-05T22:19:56.635Z,-1.70
2018-02-05T22:22:24.964Z,-1.80
2018-02-05T22:24:53.996Z,-1.70
2018-02-05T22:27:22.305Z,-1.70
2018-02-05T22:29:50.618Z,-1.70
2018-02-05T22:32:18.935Z,-1.70
2018-02-05T22:34:47.222Z,-1.70
2018-02-05T22:37:15.876Z,-1.70
2018-02-05T22:39:44.165Z,-1.70
2018-02-05T22:42:12.427Z,-1.70
2018-02-05T22:44:40.785Z,-1.70
2018-02-05T22:47:09.070Z,-1.70
2018-02-05T22:49:38.163Z,-1.70
2018-02-05T22:52:06.434Z,-1.70
2018-02-05T22:54:34.718Z,-1.70
2018-02-05T22:57:03.785Z,-1.70
2018-02-05T22:59:32.373Z,-1.70
2018-02-05T23:02:00.690Z,-1.70
2018-02-05T23:04:28.986Z,-1.70
2018-02-05T23:06:57.303Z,-1.70
2018-02-05T23:09:25.561Z,-1.70
2018-02-05T23:11:53.867Z,-1.70
2018-02-05T23:14:22.156Z,-1.70
2018-02-05T23:16:50.859Z,-1.70
2018-02-05T23:19:19.906Z,-1.70
2018-02-05T23:21:48.180Z,-1.80
2018-02-05T23:24:16.519Z,-1.70
2018-02-05T23:26:44.781Z,-1.70
2018-02-05T23:29:13.866Z,-1.80
2018-02-05T23:31:42.174Z,-1.80
2018-02-05T23:34:10.479Z,-1.80
2018-02-05T23:36:38.772Z,-1.80
2018-02-05T23:39:07.106Z,-1.80
2018-02-05T23:41:35.386Z,-1.80
2018-02-05T23:44:04.133Z,-1.80
2018-02-05T23:46:32.394Z,-1.80
2018-02-05T23:49:00.712Z,-1.80
2018-02-05T23:51:29.025Z,-1.80
2018-02-05T23:53:57.333Z,-1.90
2018-02-05T23:56:25.623Z,-1.90
2018-02-05T23:58:53.888Z,-1.90
